sensor_id;sensor_type;location;lat;lon;timestamp;pressure;altitude;pressure_sealevel;temperature;humidity
27202;BME280;14717;46.924;15.474;2023-02-11T00:01:46;99867.63;;;-3.64;80.51
27202;BME280;14717;46.924;15.474;2023-02-11T00:04:12;99872.25;;;-3.74;80.49
27202;BME280;14717;46.924;15.474;2023-02-11T00:06:37;99866.63;;;-3.80;80.69
27202;BME280;14717;46.924;15.474;2023-02-11T00:09:04;99867.69;;;-3.73;80.63
27202;BME280;14717;46.924;15.474;2023-02-11T00:11:29;99870.91;;;-4.04;81.74
27202;BME280;14717;46.924;15.474;2023-02-11T00:13:59;99869.66;;;-4.27;82.74
27202;BME280;14717;46.924;15.474;2023-02-11T00:16:26;99858.16;;;-4.02;82.55
27202;BME280;14717;46.924;15.474;2023-02-11T00:18:53;99857.00;;;-3.82;82.24
27202;BME280;14717;46.924;15.474;2023-02-11T00:21:22;99853.19;;;-3.89;81.62
27202;BME280;14717;46.924;15.474;2023-02-11T00:23:48;99850.06;;;-4.02;81.57
27202;BME280;14717;46.924;15.474;2023-02-11T00:26:18;99857.28;;;-4.20;82.46
27202;BME280;14717;46.924;15.474;2023-02-11T00:28:45;99845.22;;;-4.43;83.28
27202;BME280;14717;46.924;15.474;2023-02-11T00:31:12;99840.16;;;-4.28;83.63
27202;BME280;14717;46.924;15.474;2023-02-11T00:33:37;99843.88;;;-4.12;82.46
27202;BME280;14717;46.924;15.474;2023-02-11T00:36:04;99844.28;;;-4.34;82.36
27202;BME280;14717;46.924;15.474;2023-02-11T00:38:30;99851.34;;;-4.50;83.23
27202;BME280;14717;46.924;15.474;2023-02-11T00:40:55;99845.09;;;-4.51;84.09
27202;BME280;14717;46.924;15.474;2023-02-11T00:43:21;99839.03;;;-4.53;83.37
27202;BME280;14717;46.924;15.474;2023-02-11T00:45:46;99835.06;;;-4.31;83.89
27202;BME280;14717;46.924;15.474;2023-02-11T00:48:12;99838.78;;;-4.15;82.82
27202;BME280;14717;46.924;15.474;2023-02-11T00:50:37;99838.25;;;-4.19;81.94
27202;BME280;14717;46.924;15.474;2023-02-11T00:53:02;99837.38;;;-4.36;81.95
27202;BME280;14717;46.924;15.474;2023-02-11T00:55:28;99828.50;;;-4.29;83.20
27202;BME280;14717;46.924;15.474;2023-02-11T00:57:53;99836.31;;;-4.09;82.99
27202;BME280;14717;46.924;15.474;2023-02-11T01:00:18;99834.00;;;-4.21;81.83
27202;BME280;14717;46.924;15.474;2023-02-11T01:02:44;99824.47;;;-4.42;81.31
27202;BME280;14717;46.924;15.474;2023-02-11T01:05:09;99827.00;;;-4.58;81.87
27202;BME280;14717;46.924;15.474;2023-02-11T01:07:35;99822.66;;;-4.68;82.88
27202;BME280;14717;46.924;15.474;2023-02-11T01:10:00;99811.53;;;-4.56;83.33
27202;BME280;14717;46.924;15.474;2023-02-11T01:12:25;99813.84;;;-4.61;82.62
27202;BME280;14717;46.924;15.474;2023-02-11T01:14:51;99817.81;;;-4.65;83.38
27202;BME280;14717;46.924;15.474;2023-02-11T01:17:16;99813.59;;;-4.67;83.00
27202;BME280;14717;46.924;15.474;2023-02-11T01:19:41;99807.59;;;-4.62;83.04
27202;BME280;14717;46.924;15.474;2023-02-11T01:22:07;99804.31;;;-4.82;83.23
27202;BME280;14717;46.924;15.474;2023-02-11T01:24:33;99800.53;;;-4.89;83.69
27202;BME280;14717;46.924;15.474;2023-02-11T01:26:58;99793.53;;;-4.82;83.33
27202;BME280;14717;46.924;15.474;2023-02-11T01:29:24;99792.94;;;-4.76;83.75
27202;BME280;14717;46.924;15.474;2023-02-11T01:31:49;99789.97;;;-4.56;83.02
27202;BME280;14717;46.924;15.474;2023-02-11T01:34:15;99777.72;;;-4.51;82.72
27202;BME280;14717;46.924;15.474;2023-02-11T01:36:40;99776.66;;;-4.58;82.67
27202;BME280;14717;46.924;15.474;2023-02-11T01:39:06;99773.94;;;-4.58;83.11
27202;BME280;14717;46.924;15.474;2023-02-11T01:41:33;99765.25;;;-4.52;83.21
27202;BME280;14717;46.924;15.474;2023-02-11T01:44:22;99757.63;;;-4.56;82.93
27202;BME280;14717;46.924;15.474;2023-02-11T01:46:47;99753.22;;;-4.57;82.37
27202;BME280;14717;46.924;15.474;2023-02-11T01:49:32;99748.06;;;-4.68;82.45
27202;BME280;14717;46.924;15.474;2023-02-11T01:54:36;99748.97;;;-4.77;82.53
27202;BME280;14717;46.924;15.474;2023-02-11T01:57:25;99748.41;;;-4.80;83.38
27202;BME280;14717;46.924;15.474;2023-02-11T02:02:27;99754.56;;;-5.14;84.78
27202;BME280;14717;46.924;15.474;2023-02-11T02:04:59;99747.53;;;-5.25;85.57
27202;BME280;14717;46.924;15.474;2023-02-11T02:07:44;99747.47;;;-5.06;86.17
27202;BME280;14717;46.924;15.474;2023-02-11T02:10:14;99748.59;;;-5.08;86.17
27202;BME280;14717;46.924;15.474;2023-02-11T02:12:41;99748.44;;;-5.07;86.72
27202;BME280;14717;46.924;15.474;2023-02-11T02:15:31;99752.28;;;-4.83;85.53
27202;BME280;14717;46.924;15.474;2023-02-11T02:18:01;99742.63;;;-4.85;84.50
27202;BME280;14717;46.924;15.474;2023-02-11T02:23:37;99756.81;;;-4.83;84.01
27202;BME280;14717;46.924;15.474;2023-02-11T02:34:33;99730.47;;;-5.16;82.54
27202;BME280;14717;46.924;15.474;2023-02-11T02:37:14;99726.00;;;-5.25;84.11
27202;BME280;14717;46.924;15.474;2023-02-11T02:39:42;99723.56;;;-5.18;84.84
27202;BME280;14717;46.924;15.474;2023-02-11T02:42:09;99720.94;;;-5.01;84.07
27202;BME280;14717;46.924;15.474;2023-02-11T02:44:34;99724.72;;;-4.94;84.06
27202;BME280;14717;46.924;15.474;2023-02-11T02:47:00;99717.84;;;-4.89;83.38
27202;BME280;14717;46.924;15.474;2023-02-11T02:49:25;99723.25;;;-4.89;83.54
27202;BME280;14717;46.924;15.474;2023-02-11T02:55:00;99716.31;;;-4.91;84.07
27202;BME280;14717;46.924;15.474;2023-02-11T02:57:31;99712.22;;;-4.95;84.33
27202;BME280;14717;46.924;15.474;2023-02-11T03:00:33;99721.38;;;-4.88;84.41
27202;BME280;14717;46.924;15.474;2023-02-11T03:03:16;99711.63;;;-5.16;83.29
27202;BME280;14717;46.924;15.474;2023-02-11T03:08:31;99714.41;;;-5.08;84.09
27202;BME280;14717;46.924;15.474;2023-02-11T03:11:00;99708.06;;;-5.07;83.53
27202;BME280;14717;46.924;15.474;2023-02-11T03:13:30;99699.69;;;-5.04;83.58
27202;BME280;14717;46.924;15.474;2023-02-11T03:16:01;99708.59;;;-5.04;82.67
27202;BME280;14717;46.924;15.474;2023-02-11T03:18:30;99711.63;;;-5.43;83.58
27202;BME280;14717;46.924;15.474;2023-02-11T03:20:57;99713.41;;;-5.60;85.21
27202;BME280;14717;46.924;15.474;2023-02-11T03:23:32;99711.16;;;-5.65;85.88
27202;BME280;14717;46.924;15.474;2023-02-11T03:32:00;99702.53;;;-5.32;85.57
27202;BME280;14717;46.924;15.474;2023-02-11T03:39:55;99701.47;;;-5.49;85.34
27202;BME280;14717;46.924;15.474;2023-02-11T03:42:25;99686.97;;;-5.38;84.34
27202;BME280;14717;46.924;15.474;2023-02-11T03:44:58;99695.47;;;-5.43;84.40
27202;BME280;14717;46.924;15.474;2023-02-11T03:47:28;99686.97;;;-5.38;83.67
27202;BME280;14717;46.924;15.474;2023-02-11T03:49:56;99680.53;;;-5.28;83.47
27202;BME280;14717;46.924;15.474;2023-02-11T03:52:24;99677.84;;;-5.28;82.93
27202;BME280;14717;46.924;15.474;2023-02-11T03:54:52;99663.94;;;-5.23;83.12
27202;BME280;14717;46.924;15.474;2023-02-11T03:57:17;99667.97;;;-5.37;82.52
27202;BME280;14717;46.924;15.474;2023-02-11T03:59:57;99677.97;;;-5.73;83.52
27202;BME280;14717;46.924;15.474;2023-02-11T04:02:25;99678.69;;;-5.90;85.32
27202;BME280;14717;46.924;15.474;2023-02-11T04:04:51;99671.78;;;-5.83;86.51
27202;BME280;14717;46.924;15.474;2023-02-11T04:07:17;99680.66;;;-5.73;85.98
27202;BME280;14717;46.924;15.474;2023-02-11T04:09:42;99674.09;;;-5.71;86.56
27202;BME280;14717;46.924;15.474;2023-02-11T04:12:07;99670.53;;;-5.62;86.29
27202;BME280;14717;46.924;15.474;2023-02-11T04:14:33;99667.75;;;-5.52;85.74
27202;BME280;14717;46.924;15.474;2023-02-11T04:16:58;99659.91;;;-5.63;84.53
27202;BME280;14717;46.924;15.474;2023-02-11T04:19:24;99656.22;;;-5.72;84.24
27202;BME280;14717;46.924;15.474;2023-02-11T04:21:49;99665.72;;;-5.94;86.39
27202;BME280;14717;46.924;15.474;2023-02-11T04:24:14;99661.72;;;-5.91;85.37
27202;BME280;14717;46.924;15.474;2023-02-11T04:26:40;99670.22;;;-5.86;84.35
27202;BME280;14717;46.924;15.474;2023-02-11T04:29:05;99665.75;;;-6.13;85.90
27202;BME280;14717;46.924;15.474;2023-02-11T04:31:30;99657.81;;;-6.05;86.44
27202;BME280;14717;46.924;15.474;2023-02-11T04:33:56;99653.22;;;-5.86;86.02
27202;BME280;14717;46.924;15.474;2023-02-11T04:36:21;99649.91;;;-6.07;86.25
27202;BME280;14717;46.924;15.474;2023-02-11T04:38:47;99653.78;;;-6.28;87.45
27202;BME280;14717;46.924;15.474;2023-02-11T04:41:12;99647.41;;;-6.27;87.22
27202;BME280;14717;46.924;15.474;2023-02-11T04:43:38;99651.59;;;-6.06;87.22
27202;BME280;14717;46.924;15.474;2023-02-11T04:46:03;99646.75;;;-5.93;86.79
27202;BME280;14717;46.924;15.474;2023-02-11T04:48:28;99644.16;;;-5.85;84.96
27202;BME280;14717;46.924;15.474;2023-02-11T04:50:54;99643.53;;;-6.06;85.70
27202;BME280;14717;46.924;15.474;2023-02-11T04:53:19;99644.53;;;-6.07;86.04
27202;BME280;14717;46.924;15.474;2023-02-11T04:55:47;99636.28;;;-5.96;86.09
27202;BME280;14717;46.924;15.474;2023-02-11T04:58:13;99628.00;;;-5.85;85.45
27202;BME280;14717;46.924;15.474;2023-02-11T05:00:38;99624.63;;;-5.87;84.80
27202;BME280;14717;46.924;15.474;2023-02-11T05:03:03;99632.94;;;-6.17;85.26
27202;BME280;14717;46.924;15.474;2023-02-11T05:05:29;99623.09;;;-6.26;86.71
27202;BME280;14717;46.924;15.474;2023-02-11T05:07:54;99620.69;;;-6.29;86.40
27202;BME280;14717;46.924;15.474;2023-02-11T05:10:20;99630.75;;;-6.49;86.29
27202;BME280;14717;46.924;15.474;2023-02-11T05:12:47;99618.69;;;-6.36;87.04
27202;BME280;14717;46.924;15.474;2023-02-11T05:15:12;99614.53;;;-6.12;86.08
27202;BME280;14717;46.924;15.474;2023-02-11T05:17:37;99610.81;;;-6.01;85.99
27202;BME280;14717;46.924;15.474;2023-02-11T05:20:03;99607.69;;;-5.97;85.96
27202;BME280;14717;46.924;15.474;2023-02-11T05:22:29;99602.03;;;-5.94;84.94
27202;BME280;14717;46.924;15.474;2023-02-11T05:24:54;99620.69;;;-6.29;84.42
27202;BME280;14717;46.924;15.474;2023-02-11T05:27:19;99623.38;;;-6.47;86.88
27202;BME280;14717;46.924;15.474;2023-02-11T05:29:45;99630.47;;;-6.46;88.00
27202;BME280;14717;46.924;15.474;2023-02-11T05:32:10;99627.63;;;-6.35;88.17
27202;BME280;14717;46.924;15.474;2023-02-11T05:34:36;99626.72;;;-6.08;87.74
27202;BME280;14717;46.924;15.474;2023-02-11T05:37:01;99627.28;;;-6.14;86.43
27202;BME280;14717;46.924;15.474;2023-02-11T05:39:27;99612.28;;;-6.16;86.11
27202;BME280;14717;46.924;15.474;2023-02-11T05:41:52;99623.63;;;-6.22;86.57
27202;BME280;14717;46.924;15.474;2023-02-11T05:44:18;99632.28;;;-6.37;86.85
27202;BME280;14717;46.924;15.474;2023-02-11T05:46:43;99626.44;;;-6.14;86.60
27202;BME280;14717;46.924;15.474;2023-02-11T05:49:09;99626.41;;;-6.05;86.24
27202;BME280;14717;46.924;15.474;2023-02-11T05:51:34;99621.88;;;-6.04;86.66
27202;BME280;14717;46.924;15.474;2023-02-11T05:53:59;99616.78;;;-5.98;86.52
27202;BME280;14717;46.924;15.474;2023-02-11T05:56:25;99621.53;;;-5.92;86.65
27202;BME280;14717;46.924;15.474;2023-02-11T05:58:50;99620.97;;;-5.86;86.64
27202;BME280;14717;46.924;15.474;2023-02-11T06:01:15;99629.03;;;-5.86;85.42
27202;BME280;14717;46.924;15.474;2023-02-11T06:03:41;99625.25;;;-5.93;86.55
27202;BME280;14717;46.924;15.474;2023-02-11T06:06:11;99625.97;;;-6.00;86.29
27202;BME280;14717;46.924;15.474;2023-02-11T06:08:37;99621.91;;;-6.14;86.86
27202;BME280;14717;46.924;15.474;2023-02-11T06:11:03;99617.44;;;-6.23;87.67
27202;BME280;14717;46.924;15.474;2023-02-11T06:13:28;99616.81;;;-6.17;88.79
27202;BME280;14717;46.924;15.474;2023-02-11T06:15:58;99616.38;;;-6.03;87.95
27202;BME280;14717;46.924;15.474;2023-02-11T06:18:23;99619.69;;;-6.28;86.98
27202;BME280;14717;46.924;15.474;2023-02-11T06:20:49;99609.25;;;-6.49;88.31
27202;BME280;14717;46.924;15.474;2023-02-11T06:23:14;99610.78;;;-6.37;89.80
27202;BME280;14717;46.924;15.474;2023-02-11T06:25:39;99604.00;;;-6.23;89.54
27202;BME280;14717;46.924;15.474;2023-02-11T06:28:05;99603.09;;;-6.14;89.23
27202;BME280;14717;46.924;15.474;2023-02-11T06:30:30;99602.66;;;-6.09;89.90
27202;BME280;14717;46.924;15.474;2023-02-11T06:32:55;99605.44;;;-6.01;89.28
27202;BME280;14717;46.924;15.474;2023-02-11T06:35:21;99600.53;;;-5.79;89.45
27202;BME280;14717;46.924;15.474;2023-02-11T06:37:46;99598.03;;;-5.63;87.31
27202;BME280;14717;46.924;15.474;2023-02-11T06:40:13;99587.66;;;-5.58;87.12
27202;BME280;14717;46.924;15.474;2023-02-11T06:42:39;99582.34;;;-5.51;86.92
27202;BME280;14717;46.924;15.474;2023-02-11T06:45:06;99589.94;;;-5.37;86.60
27202;BME280;14717;46.924;15.474;2023-02-11T06:47:33;99586.16;;;-5.26;86.71
27202;BME280;14717;46.924;15.474;2023-02-11T06:49:59;99582.25;;;-5.32;86.04
27202;BME280;14717;46.924;15.474;2023-02-11T06:52:24;99586.78;;;-5.15;86.20
27202;BME280;14717;46.924;15.474;2023-02-11T06:54:49;99580.31;;;-5.22;86.84
27202;BME280;14717;46.924;15.474;2023-02-11T06:57:15;99590.03;;;-5.29;86.72
27202;BME280;14717;46.924;15.474;2023-02-11T06:59:40;99598.78;;;-5.27;88.12
27202;BME280;14717;46.924;15.474;2023-02-11T07:02:08;99598.38;;;-5.14;88.51
27202;BME280;14717;46.924;15.474;2023-02-11T07:04:33;99600.50;;;-4.91;87.87
27202;BME280;14717;46.924;15.474;2023-02-11T07:06:58;99610.03;;;-4.79;88.79
27202;BME280;14717;46.924;15.474;2023-02-11T07:09:24;99599.78;;;-4.76;88.92
27202;BME280;14717;46.924;15.474;2023-02-11T07:11:49;99598.09;;;-4.60;88.81
27202;BME280;14717;46.924;15.474;2023-02-11T07:14:14;99590.97;;;-4.43;88.47
27202;BME280;14717;46.924;15.474;2023-02-11T07:16:40;99597.31;;;-4.27;87.86
27202;BME280;14717;46.924;15.474;2023-02-11T07:19:05;99590.38;;;-4.29;88.30
27202;BME280;14717;46.924;15.474;2023-02-11T07:21:31;99593.91;;;-4.29;88.82
27202;BME280;14717;46.924;15.474;2023-02-11T07:23:56;99592.47;;;-4.23;90.25
27202;BME280;14717;46.924;15.474;2023-02-11T07:26:22;99599.44;;;-4.13;90.66
27202;BME280;14717;46.924;15.474;2023-02-11T07:28:49;99588.53;;;-4.04;90.01
27202;BME280;14717;46.924;15.474;2023-02-11T07:31:20;99599.53;;;-3.97;90.19
27202;BME280;14717;46.924;15.474;2023-02-11T07:33:46;99590.16;;;-3.85;89.66
27202;BME280;14717;46.924;15.474;2023-02-11T07:36:13;99604.75;;;-3.71;89.47
27202;BME280;14717;46.924;15.474;2023-02-11T07:38:39;99605.47;;;-3.61;89.17
27202;BME280;14717;46.924;15.474;2023-02-11T07:41:10;99601.09;;;-3.54;88.68
27202;BME280;14717;46.924;15.474;2023-02-11T07:43:37;99597.44;;;-3.45;88.28
27202;BME280;14717;46.924;15.474;2023-02-11T07:46:04;99587.00;;;-3.32;87.24
27202;BME280;14717;46.924;15.474;2023-02-11T07:48:30;99594.97;;;-3.23;85.91
27202;BME280;14717;46.924;15.474;2023-02-11T07:51:07;99595.34;;;-3.10;86.26
27202;BME280;14717;46.924;15.474;2023-02-11T07:53:32;99607.69;;;-2.99;86.12
27202;BME280;14717;46.924;15.474;2023-02-11T07:55:58;99592.00;;;-2.80;85.24
27202;BME280;14717;46.924;15.474;2023-02-11T07:58:23;99600.16;;;-2.64;85.30
27202;BME280;14717;46.924;15.474;2023-02-11T08:00:49;99599.31;;;-2.49;84.91
27202;BME280;14717;46.924;15.474;2023-02-11T08:03:14;99595.94;;;-2.51;83.97
27202;BME280;14717;46.924;15.474;2023-02-11T08:05:39;99590.16;;;-2.40;82.72
27202;BME280;14717;46.924;15.474;2023-02-11T08:08:05;99581.72;;;-2.45;82.52
27202;BME280;14717;46.924;15.474;2023-02-11T08:10:30;99582.22;;;-2.26;82.49
27202;BME280;14717;46.924;15.474;2023-02-11T08:12:55;99589.16;;;-2.23;82.93
27202;BME280;14717;46.924;15.474;2023-02-11T08:15:21;99582.03;;;-2.16;83.70
27202;BME280;14717;46.924;15.474;2023-02-11T08:17:46;99587.78;;;-2.12;83.50
27202;BME280;14717;46.924;15.474;2023-02-11T08:20:11;99583.53;;;-2.06;82.78
27202;BME280;14717;46.924;15.474;2023-02-11T08:22:37;99584.75;;;-2.16;83.02
27202;BME280;14717;46.924;15.474;2023-02-11T08:25:02;99585.75;;;-2.10;83.05
27202;BME280;14717;46.924;15.474;2023-02-11T08:27:28;99589.78;;;-1.98;82.75
27202;BME280;14717;46.924;15.474;2023-02-11T08:29:54;99587.38;;;-1.93;82.08
27202;BME280;14717;46.924;15.474;2023-02-11T08:32:20;99585.88;;;-1.87;81.92
27202;BME280;14717;46.924;15.474;2023-02-11T08:34:50;99586.16;;;-1.74;80.47
27202;BME280;14717;46.924;15.474;2023-02-11T08:37:16;99591.88;;;-1.70;80.80
27202;BME280;14717;46.924;15.474;2023-02-11T08:39:44;99586.84;;;-1.72;80.42
27202;BME280;14717;46.924;15.474;2023-02-11T08:42:14;99588.31;;;-1.62;80.99
27202;BME280;14717;46.924;15.474;2023-02-11T08:45:17;99580.25;;;-1.40;80.05
27202;BME280;14717;46.924;15.474;2023-02-11T08:48:12;99577.50;;;-1.24;78.63
27202;BME280;14717;46.924;15.474;2023-02-11T08:51:20;99595.13;;;-0.98;78.97
27202;BME280;14717;46.924;15.474;2023-02-11T08:56:37;99590.28;;;-0.80;77.01
27202;BME280;14717;46.924;15.474;2023-02-11T08:59:06;99588.59;;;-0.59;77.79
27202;BME280;14717;46.924;15.474;2023-02-11T09:01:42;99582.25;;;-0.51;76.54
27202;BME280;14717;46.924;15.474;2023-02-11T09:04:12;99579.84;;;-0.46;76.51
27202;BME280;14717;46.924;15.474;2023-02-11T09:06:49;99577.91;;;-0.38;76.22
27202;BME280;14717;46.924;15.474;2023-02-11T09:09:18;99573.25;;;-0.30;76.58
27202;BME280;14717;46.924;15.474;2023-02-11T09:11:47;99569.63;;;-0.22;75.50
27202;BME280;14717;46.924;15.474;2023-02-11T09:14:33;99566.72;;;-0.21;71.79
27202;BME280;14717;46.924;15.474;2023-02-11T09:17:02;99559.47;;;-0.06;71.29
27202;BME280;14717;46.924;15.474;2023-02-11T09:19:29;99569.59;;;0.00;71.20
27202;BME280;14717;46.924;15.474;2023-02-11T09:22:13;99560.72;;;0.20;72.13
27202;BME280;14717;46.924;15.474;2023-02-11T09:24:41;99550.78;;;0.27;70.44
27202;BME280;14717;46.924;15.474;2023-02-11T09:27:21;99557.59;;;0.38;71.17
27202;BME280;14717;46.924;15.474;2023-02-11T09:30:57;99563.59;;;0.19;70.78
27202;BME280;14717;46.924;15.474;2023-02-11T09:33:33;99558.75;;;0.29;71.41
27202;BME280;14717;46.924;15.474;2023-02-11T09:36:36;99556.13;;;0.49;70.83
27202;BME280;14717;46.924;15.474;2023-02-11T09:39:57;99559.28;;;0.67;69.73
27202;BME280;14717;46.924;15.474;2023-02-11T09:58:38;99523.03;;;2.06;64.40
27202;BME280;14717;46.924;15.474;2023-02-11T10:38:30;99463.16;;;3.63;57.35
27202;BME280;14717;46.924;15.474;2023-02-11T11:01:54;99413.06;;;5.07;51.29
27202;BME280;14717;46.924;15.474;2023-02-11T11:11:59;99415.44;;;4.97;50.06
27202;BME280;14717;46.924;15.474;2023-02-11T11:24:52;99388.06;;;5.52;48.98
27202;BME280;14717;46.924;15.474;2023-02-11T11:34:37;99384.31;;;6.13;46.22
27202;BME280;14717;46.924;15.474;2023-02-11T11:41:31;99350.03;;;6.57;46.35
27202;BME280;14717;46.924;15.474;2023-02-11T11:50:56;99345.44;;;7.10;42.49
27202;BME280;14717;46.924;15.474;2023-02-11T11:57:41;99341.25;;;6.78;44.51
27202;BME280;14717;46.924;15.474;2023-02-11T12:55:20;99248.94;;;7.63;42.19
27202;BME280;14717;46.924;15.474;2023-02-11T12:57:59;99237.28;;;7.95;42.86
27202;BME280;14717;46.924;15.474;2023-02-11T13:00:34;99235.72;;;7.99;42.39
27202;BME280;14717;46.924;15.474;2023-02-11T13:06:20;99233.50;;;7.51;42.99
27202;BME280;14717;46.924;15.474;2023-02-11T13:08:50;99219.88;;;7.67;42.90
27202;BME280;14717;46.924;15.474;2023-02-11T13:11:36;99210.09;;;7.60;42.81
27202;BME280;14717;46.924;15.474;2023-02-11T13:24:45;99190.81;;;8.10;42.41
27202;BME280;14717;46.924;15.474;2023-02-11T13:31:05;99194.03;;;8.30;40.98
27202;BME280;14717;46.924;15.474;2023-02-11T13:33:54;99189.97;;;8.48;41.78
27202;BME280;14717;46.924;15.474;2023-02-11T13:39:19;99198.31;;;8.53;40.49
27202;BME280;14717;46.924;15.474;2023-02-11T13:41:45;99189.63;;;8.45;40.28
27202;BME280;14717;46.924;15.474;2023-02-11T13:44:25;99186.84;;;8.29;40.33
27202;BME280;14717;46.924;15.474;2023-02-11T13:47:32;99192.09;;;8.30;40.81
27202;BME280;14717;46.924;15.474;2023-02-11T13:50:23;99192.72;;;8.48;40.80
27202;BME280;14717;46.924;15.474;2023-02-11T14:05:40;99193.75;;;8.59;40.24
27202;BME280;14717;46.924;15.474;2023-02-11T14:12:20;99183.97;;;8.51;40.66
27202;BME280;14717;46.924;15.474;2023-02-11T14:15:30;99193.59;;;8.38;41.67
27202;BME280;14717;46.924;15.474;2023-02-11T14:21:46;99189.00;;;8.54;41.35
27202;BME280;14717;46.924;15.474;2023-02-11T14:50:49;99183.22;;;8.56;42.06
27202;BME280;14717;46.924;15.474;2023-02-11T14:53:43;99192.00;;;8.53;42.62
27202;BME280;14717;46.924;15.474;2023-02-11T14:56:38;99185.97;;;8.40;43.11
27202;BME280;14717;46.924;15.474;2023-02-11T14:59:24;99189.50;;;8.24;42.92
27202;BME280;14717;46.924;15.474;2023-02-11T15:01:52;99187.56;;;8.24;42.94
27202;BME280;14717;46.924;15.474;2023-02-11T15:05:12;99177.22;;;8.31;43.22
27202;BME280;14717;46.924;15.474;2023-02-11T15:07:52;99181.66;;;8.32;42.41
27202;BME280;14717;46.924;15.474;2023-02-11T15:10:42;99185.28;;;8.21;42.80
27202;BME280;14717;46.924;15.474;2023-02-11T15:13:35;99187.84;;;8.11;43.73
27202;BME280;14717;46.924;15.474;2023-02-11T15:22:41;99184.63;;;8.03;44.68
27202;BME280;14717;46.924;15.474;2023-02-11T15:25:20;99179.25;;;7.97;43.59
27202;BME280;14717;46.924;15.474;2023-02-11T15:32:06;99172.84;;;7.80;43.41
27202;BME280;14717;46.924;15.474;2023-02-11T15:41:47;99182.22;;;7.67;44.72
27202;BME280;14717;46.924;15.474;2023-02-11T15:45:26;99194.53;;;7.54;45.51
27202;BME280;14717;46.924;15.474;2023-02-11T16:08:31;99197.09;;;6.98;48.35
27202;BME280;14717;46.924;15.474;2023-02-11T16:14:50;99196.69;;;6.83;48.65
27202;BME280;14717;46.924;15.474;2023-02-11T16:17:28;99198.56;;;6.72;49.33
27202;BME280;14717;46.924;15.474;2023-02-11T16:26:27;99194.47;;;6.51;50.19
27202;BME280;14717;46.924;15.474;2023-02-11T16:29:47;99206.44;;;6.28;50.18
27202;BME280;14717;46.924;15.474;2023-02-11T16:35:54;99204.22;;;6.07;51.37
27202;BME280;14717;46.924;15.474;2023-02-11T16:38:45;99194.63;;;5.98;51.78
27202;BME280;14717;46.924;15.474;2023-02-11T16:41:14;99193.50;;;5.88;52.98
27202;BME280;14717;46.924;15.474;2023-02-11T16:43:49;99191.59;;;5.70;53.98
27202;BME280;14717;46.924;15.474;2023-02-11T16:46:32;99195.00;;;5.48;55.86
27202;BME280;14717;46.924;15.474;2023-02-11T16:49:39;99197.50;;;5.32;55.69
27202;BME280;14717;46.924;15.474;2023-02-11T16:52:34;99197.59;;;5.25;56.37
27202;BME280;14717;46.924;15.474;2023-02-11T17:01:54;99196.94;;;4.64;56.74
27202;BME280;14717;46.924;15.474;2023-02-11T17:07:53;99186.78;;;4.40;57.27
27202;BME280;14717;46.924;15.474;2023-02-11T17:10:44;99183.66;;;4.36;58.06
27202;BME280;14717;46.924;15.474;2023-02-11T17:16:54;99164.22;;;4.20;59.00
27202;BME280;14717;46.924;15.474;2023-02-11T17:20:05;99169.81;;;4.31;58.55
27202;BME280;14717;46.924;15.474;2023-02-11T17:22:44;99178.84;;;4.01;59.54
27202;BME280;14717;46.924;15.474;2023-02-11T17:25:10;99167.56;;;3.91;60.95
27202;BME280;14717;46.924;15.474;2023-02-11T17:27:41;99169.09;;;3.75;62.10
27202;BME280;14717;46.924;15.474;2023-02-11T17:33:29;99164.03;;;3.84;62.91
27202;BME280;14717;46.924;15.474;2023-02-11T17:36:06;99159.66;;;3.77;63.48
27202;BME280;14717;46.924;15.474;2023-02-11T17:41:58;99173.38;;;3.64;64.07
27202;BME280;14717;46.924;15.474;2023-02-11T17:44:29;99189.16;;;3.56;63.86
27202;BME280;14717;46.924;15.474;2023-02-11T17:47:15;99195.16;;;3.27;65.24
27202;BME280;14717;46.924;15.474;2023-02-11T17:53:19;99191.72;;;3.44;64.20
27202;BME280;14717;46.924;15.474;2023-02-11T17:56:00;99190.03;;;3.50;64.56
27202;BME280;14717;46.924;15.474;2023-02-11T17:58:30;99185.88;;;3.41;64.64
27202;BME280;14717;46.924;15.474;2023-02-11T18:01:06;99190.53;;;3.34;66.13
27202;BME280;14717;46.924;15.474;2023-02-11T18:03:37;99192.56;;;3.45;65.04
27202;BME280;14717;46.924;15.474;2023-02-11T18:06:06;99190.47;;;3.47;64.78
27202;BME280;14717;46.924;15.474;2023-02-11T18:08:47;99191.31;;;3.47;64.72
27202;BME280;14717;46.924;15.474;2023-02-11T18:11:21;99191.91;;;3.56;64.31
27202;BME280;14717;46.924;15.474;2023-02-11T18:14:13;99178.84;;;3.58;65.18
27202;BME280;14717;46.924;15.474;2023-02-11T18:19:58;99199.09;;;3.44;66.17
27202;BME280;14717;46.924;15.474;2023-02-11T18:22:58;99195.59;;;3.24;67.27
27202;BME280;14717;46.924;15.474;2023-02-11T18:25:29;99202.38;;;2.96;69.21
27202;BME280;14717;46.924;15.474;2023-02-11T18:27:58;99211.19;;;2.92;69.32
27202;BME280;14717;46.924;15.474;2023-02-11T18:30:25;99209.69;;;2.95;69.41
27202;BME280;14717;46.924;15.474;2023-02-11T18:33:01;99211.56;;;3.14;68.59
27202;BME280;14717;46.924;15.474;2023-02-11T18:35:37;99213.22;;;3.22;67.86
27202;BME280;14717;46.924;15.474;2023-02-11T18:38:08;99212.81;;;3.25;67.26
27202;BME280;14717;46.924;15.474;2023-02-11T18:40:34;99215.75;;;3.17;67.78
27202;BME280;14717;46.924;15.474;2023-02-11T18:43:02;99200.22;;;3.24;67.36
27202;BME280;14717;46.924;15.474;2023-02-11T18:46:13;99205.63;;;3.30;67.21
27202;BME280;14717;46.924;15.474;2023-02-11T18:49:12;99190.97;;;3.25;67.04
27202;BME280;14717;46.924;15.474;2023-02-11T18:52:02;99208.88;;;2.95;69.04
27202;BME280;14717;46.924;15.474;2023-02-11T18:54:30;99198.38;;;2.92;69.43
27202;BME280;14717;46.924;15.474;2023-02-11T18:56:56;99186.81;;;3.03;69.08
27202;BME280;14717;46.924;15.474;2023-02-11T19:00:08;99204.66;;;3.05;68.37
27202;BME280;14717;46.924;15.474;2023-02-11T19:02:50;99210.38;;;2.85;69.25
27202;BME280;14717;46.924;15.474;2023-02-11T19:12:05;99239.69;;;2.31;71.51
27202;BME280;14717;46.924;15.474;2023-02-11T19:14:36;99235.31;;;2.24;71.83
27202;BME280;14717;46.924;15.474;2023-02-11T19:17:10;99232.16;;;2.20;72.86
27202;BME280;14717;46.924;15.474;2023-02-11T19:19:40;99233.59;;;2.16;72.31